EGTK/OXF METAR and TAF weather

Enter ICAO airport designator
Station Type Date Time Source
EGTK METAR 2022/06/30 21:20 UTC NOAA

EGTK 302120Z 23005KT CAVOK 11/10 Q1013


Station Type Date Time Source
EGTK Decoded METAR 2022/06/30 21:20 UTC NOAA

Station name not available
Jun 30, 2022 - 05:20 PM EDT / 2022.06.30 2120 UTC
Wind: from the SW (230 degrees) at 6 MPH (5 KT):0
Visibility: greater than 7 mile(s):0
Temperature: 51 F (11 C)
Dew Point: 50 F (10 C)
Relative Humidity: 93%
Pressure (altimeter): 29.91 in. Hg (1013 hPa)
ob: EGTK 302120Z 23005KT CAVOK 11/10 Q1013
cycle: 21

Station Type Date Time Source
EGTK TAF UTC NOAA

Error!

Example: see airport list